Terminal Aerodrome Forecast
Issued by NWS Dallas/Fort Worth, TX

Home | Current Version | Previous Version | Text Only | Print | Product List | Glossary On
Versions: 1 2 3 4 5 6 7 8 9 10 11 12 13 14 15 16 17 18 19 20 21 22 23 24 25 26 27 28 29 30 31 32
000
FTUS44 KFWD 231502 AAB
TAFACT
TAF AMD
KACT 231502Z 2315/2412 14013KT 6SM BR VCSH BKN010 OVC014
      TEMPO 2315/2317 3SM -RA BR BKN008 OVC014
     FM231700 16014KT P6SM VCSH BKN018 OVC060
      TEMPO 2317/2320 3SM -TSRA BR SCT025 OVC035CB
     FM232100 15015KT P6SM VCSH BKN035
     FM240200 14012KT 5SM -RA VCTS BKN012 OVC030CB
      TEMPO 2404/2408 2SM +TSRA BR OVC008CB=

USA.gov is the U.S. government's official web portal to all federal, state and local government web resources and services.